Time;durP1;ratioP1;P1;durP2;ratioP2;P2;SDS_P1;SDS_P2;PMS_P1;PMS_P2;Temp;Humidity;BMP_temperature;BMP_pressure;BME280_temperature;BME280_humidity;BME280_pressure;Samples;Min_cycle;Max_cycle;Signal;HPM_P1;HPM_P2
2022/08/20 00:00:39;;;;;;;14.60;9.38;;;;;;;25.01;59.62;101392.53;5094409;28;20047;-71
2022/08/20 00:03:17;;;;;;;19.88;9.15;;;;;;;24.99;59.63;101404.75;5094481;28;20162;-71
2022/08/20 00:05:53;;;;;;;13.93;8.40;;;;;;;25.00;59.70;101409.19;5092866;28;20052;-71
2022/08/20 00:08:22;;;;;;;11.40;7.90;;;;;;;25.03;59.80;101395.09;5094075;28;20521;-71
2022/08/20 00:10:50;;;;;;;19.52;8.40;;;;;;;25.07;59.61;101401.06;5094139;28;20040;-71
2022/08/20 00:13:30;;;;;;;15.35;8.38;;;;;;;25.09;59.60;101397.06;5094165;28;20043;-71
2022/08/20 00:15:58;;;;;;;10.07;7.72;;;;;;;25.11;59.47;101391.38;5093994;27;20389;-71
2022/08/20 00:18:25;;;;;;;11.43;8.13;;;;;;;25.01;59.44;101392.53;5093466;28;20563;-72
2022/08/20 00:20:54;;;;;;;11.23;7.63;;;;;;;24.95;59.32;101400.63;5093906;28;20046;-71
2022/08/20 00:23:23;;;;;;;12.73;7.63;;;;;;;24.95;59.60;101401.50;5094037;28;20036;-71
2022/08/20 00:25:51;;;;;;;11.30;8.02;;;;;;;24.96;59.76;101399.59;5093924;28;20044;-71
2022/08/20 00:28:18;;;;;;;12.07;7.45;;;;;;;24.98;59.72;101411.28;5093596;28;20500;-71
2022/08/20 00:30:45;;;;;;;10.15;6.95;;;;;;;24.98;59.60;101403.91;5093795;28;20047;-71
2022/08/20 00:33:17;;;;;;;14.63;6.95;;;;;;;24.98;59.70;101405.78;5093735;28;20040;-71
2022/08/20 00:35:52;;;;;;;11.77;7.18;;;;;;;24.98;59.61;101400.28;5093673;27;20052;-71
2022/08/20 00:38:19;;;;;;;16.17;6.97;;;;;;;24.99;59.40;101408.34;5091481;28;20413;-71
2022/08/20 00:40:53;;;;;;;10.48;7.03;;;;;;;25.01;59.64;101398.03;5093541;28;20047;-70
2022/08/20 00:43:41;;;;;;;12.60;7.72;;;;;;;25.01;59.72;101405.41;5094052;28;20039;-70
2022/08/20 00:46:13;;;;;;;11.77;7.20;;;;;;;25.00;59.49;101398.22;5092270;28;20059;-71
2022/08/20 00:48:46;;;;;;;10.70;7.28;;;;;;;24.97;59.25;101399.44;5093620;28;20068;-71
2022/08/20 00:51:21;;;;;;;9.80;6.85;;;;;;;24.92;59.16;101396.38;5093513;28;20127;-70
2022/08/20 00:53:49;;;;;;;17.00;7.13;;;;;;;24.87;59.37;101401.59;5093388;28;20498;-71
2022/08/20 00:56:16;;;;;;;11.07;7.70;;;;;;;24.84;59.46;101401.13;5092980;28;20048;-70
2022/08/20 00:58:44;;;;;;;11.10;6.70;;;;;;;24.81;59.63;101405.09;5093304;28;20040;-71
2022/08/20 01:01:12;;;;;;;12.40;7.30;;;;;;;24.80;59.90;101397.88;5093133;28;20044;-70
2022/08/20 01:03:42;;;;;;;12.98;6.82;;;;;;;24.81;59.77;101396.84;5093188;28;20036;-71
2022/08/20 01:06:10;;;;;;;14.32;7.38;;;;;;;24.84;59.77;101401.13;5092824;28;20147;-70
2022/08/20 01:08:38;;;;;;;13.13;8.18;;;;;;;24.82;59.67;101393.06;5093076;28;20036;-71
2022/08/20 01:11:11;;;;;;;13.50;7.75;;;;;;;24.79;59.69;101396.19;5093031;28;20044;-71
2022/08/20 01:13:44;;;;;;;15.07;9.23;;;;;;;24.77;59.96;101397.41;5093580;28;20036;-72
2022/08/20 01:16:18;;;;;;;9.77;8.73;;;;;;;24.76;59.80;101401.22;5092602;28;20271;-71
2022/08/20 01:18:47;;;;;;;12.80;9.45;;;;;;;24.71;59.79;101401.78;5092944;28;20401;-70
2022/08/20 01:21:15;;;;;;;13.18;8.15;;;;;;;24.66;59.92;101402.34;5092370;28;20052;-71
2022/08/20 01:23:54;;;;;;;12.75;9.43;;;;;;;24.63;60.19;101405.47;5092725;28;20036;-71
2022/08/20 01:26:27;;;;;;;15.23;9.57;;;;;;;24.62;60.06;101397.41;5092508;27;20091;-71
2022/08/20 01:29:04;;;;;;;14.75;10.13;;;;;;;24.63;60.10;101401.84;5092679;28;20052;-71
2022/08/20 01:31:34;;;;;;;10.43;9.02;;;;;;;24.61;60.30;101403.94;5092578;28;20043;-71
2022/08/20 01:34:06;;;;;;;15.75;10.07;;;;;;;24.61;60.45;101403.94;5074509;28;20046;-71
2022/08/20 01:36:38;;;;;;;13.00;10.15;;;;;;;24.62;60.36;101405.66;5108251;28;20043;-71
2022/08/20 01:39:14;;;;;;;13.55;10.32;;;;;;;24.63;60.22;101401.84;5092587;28;20417;-70
2022/08/20 01:42:08;;;;;;;14.85;10.05;;;;;;;24.61;60.61;101401.19;5092200;28;20050;-70
2022/08/20 01:44:37;;;;;;;16.70;9.77;;;;;;;24.60;60.46;101394.00;5092272;28;20036;-70
2022/08/20 01:47:19;;;;;;;14.63;9.90;;;;;;;24.62;60.66;101386.41;5092517;28;20075;-70
2022/08/20 01:49:51;;;;;;;13.68;9.50;;;;;;;24.65;60.68;101389.63;5092108;27;20087;-69
2022/08/20 01:52:32;;;;;;;10.98;9.77;;;;;;;24.69;60.79;101396.47;5092613;28;20406;-70
2022/08/20 01:54:59;;;;;;;12.48;9.60;;;;;;;24.70;60.74;101391.81;5090773;28;20047;-69
2022/08/20 01:57:26;;;;;;;15.07;10.18;;;;;;;24.73;60.60;101396.09;5091843;28;20042;-69
2022/08/20 01:59:52;;;;;;;12.52;9.73;;;;;;;24.75;60.82;101399.50;5092179;28;20402;-69
2022/08/20 02:02:19;;;;;;;13.38;10.52;;;;;;;24.76;60.37;101395.72;5090306;28;20044;-69
2022/08/20 02:04:47;;;;;;;14.07;10.05;;;;;;;24.78;60.70;101394.47;5071820;28;20402;-70
2022/08/20 02:07:18;;;;;;;11.82;10.20;;;;;;;24.78;60.61;101393.63;5071554;28;20521;-69
2022/08/20 02:09:46;;;;;;;13.93;9.18;;;;;;;24.77;60.70;101391.91;5071706;28;20438;-70
2022/08/20 02:12:13;;;;;;;13.73;9.65;;;;;;;24.77;60.74;101397.41;5084325;28;20046;-70
2022/08/20 02:14:45;;;;;;;11.32;9.70;;;;;;;24.75;60.87;101397.59;5092123;28;20478;-69
2022/08/20 02:17:12;;;;;;;12.20;9.68;;;;;;;24.75;60.59;101396.75;5091507;27;20141;-69
2022/08/20 02:19:49;;;;;;;10.85;9.68;;;;;;;24.73;60.45;101399.69;5091777;28;20051;-69
2022/08/20 02:22:24;;;;;;;13.45;9.27;;;;;;;24.72;60.53;101400.72;5091153;28;20039;-69
2022/08/20 02:24:51;;;;;;;;;;;;;;;24.71;60.67;101401.78;5092317;28;20048;-69
2022/08/20 02:27:22;;;;;;;11.60;9.45;;;;;;;24.73;60.54;101407.94;5091578;28;19920;-69
2022/08/20 02:29:50;;;;;;;14.75;9.32;;;;;;;24.70;60.53;101405.56;5091646;28;20047;-69
2022/08/20 02:32:17;;;;;;;11.93;9.52;;;;;;;24.69;60.67;101396.47;5091126;28;20055;-70
2022/08/20 02:35:01;;;;;;;12.55;9.95;;;;;;;24.71;60.79;101402.63;5091777;28;20143;-69
2022/08/20 02:37:29;;;;;;;12.50;9.18;;;;;;;24.72;60.83;101400.72;5091619;28;20478;-69
2022/08/20 02:39:55;;;;;;;12.13;9.50;;;;;;;24.72;60.85;101406.22;5091215;27;20494;-69
2022/08/20 02:42:22;;;;;;;12.88;10.07;;;;;;;24.74;61.33;101414.28;5090966;28;20527;-71
2022/08/20 02:44:49;;;;;;;11.65;9.73;;;;;;;24.74;60.95;101408.78;5091581;28;20052;-70
2022/08/20 02:47:16;;;;;;;11.60;10.00;;;;;;;24.75;61.05;101407.75;5091421;28;20040;-70
2022/08/20 02:49:42;;;;;;;10.68;9.10;;;;;;;24.76;61.03;101409.44;5091567;28;20045;-70
2022/08/20 02:52:09;;;;;;;12.18;10.27;;;;;;;24.74;61.01;101406.88;5090839;28;20386;-71
2022/08/20 02:54:36;;;;;;;16.27;10.57;;;;;;;24.70;60.79;101408.31;5091394;28;20036;-72
2022/08/20 02:57:03;;;;;;;13.68;10.32;;;;;;;24.69;60.98;101409.34;5091036;27;20060;-71
2022/08/20 02:59:30;;;;;;;14.73;9.63;;;;;;;24.69;61.11;101401.09;5091431;28;20397;-71
2022/08/20 03:01:57;;;;;;;15.40;9.73;;;;;;;24.70;61.05;101408.31;5090678;28;20035;-71
2022/08/20 03:04:31;;;;;;;18.85;10.35;;;;;;;24.71;60.92;101404.50;5091395;28;20032;-71
2022/08/20 03:06:58;;;;;;;12.48;9.75;;;;;;;24.71;61.05;101399.03;5091227;28;20127;-71
2022/08/20 03:09:25;;;;;;;16.67;10.43;;;;;;;24.68;61.10;101394.75;5094294;28;20131;-71
2022/08/20 03:11:53;;;;;;;12.00;10.18;;;;;;;24.68;61.13;101399.41;5093902;28;20055;-71
2022/08/20 03:14:19;;;;;;;15.95;9.88;;;;;;;24.67;60.73;101393.06;5095281;28;20056;-70
2022/08/20 03:16:46;;;;;;;12.02;10.38;;;;;;;24.68;61.20;101396.66;5095241;28;20036;-70
2022/08/20 03:19:12;;;;;;;13.70;10.80;;;;;;;24.68;61.05;101388.41;5095083;28;20040;-71
2022/08/20 03:21:40;;;;;;;14.35;11.15;;;;;;;24.66;61.00;101402.34;5074716;28;20490;-71
2022/08/20 03:24:07;;;;;;;15.60;11.45;;;;;;;24.65;61.29;101400.63;5073732;28;20041;-70
2022/08/20 03:26:33;;;;;;;15.35;11.30;;;;;;;24.62;61.22;101403.75;5075063;28;20041;-71
2022/08/20 03:29:00;;;;;;;15.32;11.57;;;;;;;24.62;61.28;101405.66;5073745;28;20376;-71
2022/08/20 03:31:27;;;;;;;12.52;10.35;;;;;;;24.60;61.27;101408.56;5092181;28;20048;-71
2022/08/20 03:33:57;;;;;;;16.52;11.30;;;;;;;24.57;61.29;101408.09;5095000;28;20490;-71
2022/08/20 03:36:24;;;;;;;13.57;11.57;;;;;;;24.54;61.13;101414.81;5093330;28;20382;-71
2022/08/20 03:39:00;;;;;;;14.45;10.82;;;;;;;24.51;61.10;101406.06;5095154;28;20097;-71
2022/08/20 03:41:27;;;;;;;13.65;11.73;;;;;;;24.48;61.34;101403.69;5094519;28;20036;-70
2022/08/20 03:43:58;;;;;;;14.65;12.20;;;;;;;24.43;61.42;101398.75;5094909;28;20486;-69
2022/08/20 03:46:24;;;;;;;15.32;12.52;;;;;;;24.40;61.56;101396.38;5093474;28;20040;-69
2022/08/20 03:48:52;;;;;;;14.38;11.85;;;;;;;24.40;61.72;101402.72;5093401;28;20044;-69
2022/08/20 03:51:28;;;;;;;17.40;12.48;;;;;;;24.44;61.55;101403.22;5094417;28;20040;-69
2022/08/20 03:53:58;;;;;;;17.92;12.38;;;;;;;24.47;61.82;101405.59;5094595;28;20048;-69
2022/08/20 03:56:26;;;;;;;15.90;12.65;;;;;;;24.51;61.66;101406.06;5094607;28;20040;-69
2022/08/20 03:58:54;;;;;;;17.38;12.73;;;;;;;24.53;61.72;101401.28;5094431;28;20040;-70
2022/08/20 04:01:20;;;;;;;20.88;13.55;;;;;;;24.51;62.09;101409.66;5094138;28;20506;-69
2022/08/20 04:04:07;;;;;;;13.65;11.63;;;;;;;24.51;61.68;101415.16;5094428;28;20052;-69
2022/08/20 04:06:38;;;;;;;16.02;13.52;;;;;;;24.51;61.52;101409.66;5094344;28;20048;-69
2022/08/20 04:09:05;;;;;;;18.77;13.65;;;;;;;24.52;61.47;101413.25;5092970;28;20067;-70
2022/08/20 04:11:36;;;;;;;18.08;13.05;;;;;;;24.51;61.77;101411.56;5093513;28;20124;-71
2022/08/20 04:14:02;;;;;;;16.35;12.90;;;;;;;24.51;61.79;101414.31;5094160;27;20054;-69
2022/08/20 04:16:31;;;;;;;15.95;13.23;;;;;;;24.49;61.80;101428.22;5094303;28;20397;-70
2022/08/20 04:18:59;;;;;;;20.83;13.63;;;;;;;24.48;61.62;101428.41;5093565;28;20085;-70
2022/08/20 04:21:33;;;;;;;18.83;13.55;;;;;;;24.46;61.65;101431.34;5094399;28;20036;-70
2022/08/20 04:24:04;;;;;;;21.67;15.07;;;;;;;24.44;61.44;101430.66;5093981;28;20032;-69
2022/08/20 04:26:36;;;;;;;20.45;15.00;;;;;;;24.39;61.76;101422.13;5093750;27;20573;-70
2022/08/20 04:29:03;;;;;;;21.20;15.10;;;;;;;24.35;61.84;101431.78;5093656;28;20383;-70
2022/08/20 04:31:32;;;;;;;20.55;15.13;;;;;;;24.33;61.99;101434.72;5092088;28;20028;-70
2022/08/20 04:34:02;;;;;;;25.88;15.15;;;;;;;24.33;61.94;101436.59;5093930;28;20398;-70
2022/08/20 04:36:29;;;;;;;22.50;16.48;;;;;;;24.33;61.72;101442.94;5093721;28;20047;-70
2022/08/20 04:38:56;;;;;;;20.65;16.75;;;;;;;24.33;61.79;101439.34;5093345;28;20032;-69
2022/08/20 04:41:22;;;;;;;23.63;17.48;;;;;;;24.29;62.14;101440.75;5092586;28;20402;-70
2022/08/20 04:43:55;;;;;;;24.98;17.45;;;;;;;24.27;62.08;101442.84;5093648;28;20080;-69
2022/08/20 04:46:27;;;;;;;27.73;17.17;;;;;;;24.26;62.15;101449.31;5093935;28;20055;-69
2022/08/20 04:48:56;;;;;;;28.33;17.33;;;;;;;24.22;61.99;101453.47;5093230;28;20438;-70
2022/08/20 04:51:23;;;;;;;27.15;17.80;;;;;;;24.18;62.14;101453.00;5092212;28;20425;-70
2022/08/20 04:53:52;;;;;;;24.25;18.17;;;;;;;24.15;61.89;101456.09;5092019;28;20072;-69
2022/08/20 04:56:25;;;;;;;27.70;18.77;;;;;;;24.13;61.95;101466.41;5093462;28;20036;-69
2022/08/20 04:58:57;;;;;;;28.20;19.02;;;;;;;24.12;62.20;101461.94;5092899;28;20047;-69
2022/08/20 05:01:25;;;;;;;25.08;18.25;;;;;;;24.14;61.96;101472.75;5093298;28;20040;-69
2022/08/20 05:03:54;;;;;;;26.48;18.55;;;;;;;24.14;62.08;101473.59;5093255;28;20044;-70
2022/08/20 05:06:24;;;;;;;29.30;19.15;;;;;;;24.14;62.33;101475.50;5091775;28;20486;-70
2022/08/20 05:08:52;;;;;;;28.55;18.98;;;;;;;24.14;62.25;101478.25;5091482;28;20055;-70
2022/08/20 05:11:20;;;;;;;28.83;20.58;;;;;;;24.15;62.36;101479.94;5093075;28;20118;-70
2022/08/20 05:14:05;;;;;;;31.23;21.52;;;;;;;24.15;62.30;101480.81;5093192;28;20056;-70
2022/08/20 05:16:37;;;;;;;31.73;22.08;;;;;;;24.13;62.20;101474.63;5092715;28;20472;-70
2022/08/20 05:19:07;;;;;;;34.75;23.00;;;;;;;24.14;62.31;101484.59;5092522;28;20040;-70
2022/08/20 05:21:34;;;;;;;33.25;22.55;;;;;;;24.12;62.28;101485.81;5091592;28;20147;-70
2022/08/20 05:24:03;;;;;;;32.63;22.15;;;;;;;24.10;62.54;101488.72;5092928;28;20040;-70
2022/08/20 05:26:32;;;;;;;38.45;23.63;;;;;;;24.09;62.35;101485.13;5092500;28;20040;-70
2022/08/20 05:28:58;;;;;;;36.60;23.45;;;;;;;24.08;62.54;101486.16;5092863;28;20091;-70
2022/08/20 05:31:27;;;;;;;36.33;22.95;;;;;;;24.07;62.46;101489.94;5091951;28;20047;-70
2022/08/20 05:34:08;;;;;;;36.53;24.15;;;;;;;24.06;62.42;101495.63;5092735;28;20075;-70
2022/08/20 05:36:48;;;;;;;39.20;24.55;;;;;;;24.02;62.35;101486.88;5092369;28;20066;-70
2022/08/20 05:39:17;;;;;;;37.45;25.80;;;;;;;24.04;62.21;101489.44;5092075;28;20406;-70
2022/08/20 05:41:44;;;;;;;37.80;24.35;;;;;;;24.02;62.35;101491.53;5092357;28;20048;-69
2022/08/20 05:44:14;;;;;;;39.10;26.25;;;;;;;24.00;62.39;101485.38;5092993;28;20040;-69
2022/08/20 05:46:43;;;;;;;38.72;25.17;;;;;;;23.99;62.48;101495.47;5092231;28;20394;-69
2022/08/20 05:49:14;;;;;;;38.17;25.13;;;;;;;23.97;62.31;101494.81;5092481;28;20461;-69
2022/08/20 05:51:41;;;;;;;40.38;26.23;;;;;;;23.92;62.24;101499.13;5092101;28;20486;-69
2022/08/20 05:54:11;;;;;;;39.53;27.58;;;;;;;23.85;62.60;101495.41;5092395;28;20453;-69
2022/08/20 05:56:38;;;;;;;40.53;26.77;;;;;;;23.84;62.65;101494.53;5091494;28;20110;-70
2022/08/20 05:59:07;;;;;;;44.80;28.08;;;;;;;23.79;62.46;101493.38;5091947;28;20352;-70
2022/08/20 06:01:35;;;;;;;46.30;27.55;;;;;;;23.73;62.78;101501.25;5092039;28;20114;-70
2022/08/20 06:06:50;;;;;;;40.05;27.80;;;;;;;23.63;62.55;101492.38;5091582;28;20058;-69
2022/08/20 06:09:19;;;;;;;40.30;27.08;;;;;;;23.60;62.64;101492.75;5091987;28;20406;-69
2022/08/20 06:11:58;;;;;;;45.38;27.85;;;;;;;23.63;62.76;101502.50;5091987;28;20070;-70
2022/08/20 06:14:25;;;;;;;45.85;27.40;;;;;;;23.64;62.63;101498.72;5091934;28;20048;-70
2022/08/20 06:16:52;;;;;;;44.35;27.17;;;;;;;23.66;62.79;101499.41;5091088;28;20457;-70
2022/08/20 06:19:25;;;;;;;43.17;27.15;;;;;;;23.67;62.82;101503.84;5087533;28;20448;-70
2022/08/20 06:21:52;;;;;;;36.90;26.17;;;;;;;23.66;62.57;101497.53;5089993;28;20055;-70
2022/08/20 06:24:23;;;;;;;39.20;26.00;;;;;;;23.63;62.57;101502.50;5090748;28;20047;-70
2022/08/20 06:26:55;;;;;;;41.58;27.20;;;;;;;23.61;62.72;101505.44;5091188;28;20119;-69
2022/08/20 06:29:22;;;;;;;42.58;27.23;;;;;;;23.60;62.97;101509.19;5091562;28;20553;-69
2022/08/20 06:31:48;;;;;;;38.78;26.08;;;;;;;23.65;62.96;101505.94;5091579;28;20040;-68
2022/08/20 06:34:15;;;;;;;39.53;26.55;;;;;;;23.67;63.17;101512.09;5091431;27;20044;-68
2022/08/20 06:36:45;;;;;;;38.25;26.13;;;;;;;23.70;63.00;101509.84;5091582;28;20401;-67
2022/08/20 06:39:14;;;;;;;41.60;26.02;;;;;;;23.73;63.05;101506.75;5091584;28;20038;-67
2022/08/20 06:41:42;;;;;;;40.95;26.20;;;;;;;23.76;62.95;101502.78;5090706;28;20036;-67
2022/08/20 06:44:08;;;;;;;41.75;25.90;;;;;;;23.76;62.84;101509.13;5091193;27;20028;-67
2022/08/20 06:46:37;;;;;;;36.60;26.27;;;;;;;23.76;62.86;101511.88;5090179;28;20048;-67
2022/08/20 06:49:05;;;;;;;37.60;26.95;;;;;;;23.79;63.09;101512.56;5091052;28;20541;-67
2022/08/20 06:51:33;;;;;;;35.60;26.55;;;;;;;23.82;62.97;101507.59;5091234;28;20048;-67
2022/08/20 06:53:59;;;;;;;37.15;25.83;;;;;;;23.88;63.01;101509.59;5091387;28;20036;-68
2022/08/20 06:56:26;;;;;;;36.92;26.13;;;;;;;23.95;62.92;101510.59;5089801;28;20097;-68
2022/08/20 06:58:52;;;;;;;38.65;26.90;;;;;;;23.98;63.00;101507.50;5091022;28;20040;-67
2022/08/20 07:01:20;;;;;;;34.67;25.58;;;;;;;24.01;62.90;101511.75;5091277;28;20040;-67
2022/08/20 07:03:49;;;;;;;37.17;25.27;;;;;;;24.01;62.96;101523.59;5091017;28;20048;-67
2022/08/20 07:06:24;;;;;;;36.80;27.35;;;;;;;24.06;62.92;101515.69;5091332;28;20040;-67
2022/08/20 07:08:50;;;;;;;35.97;26.83;;;;;;;24.12;62.96;101510.50;5090689;28;20118;-67
2022/08/20 07:11:19;;;;;;;37.20;25.95;;;;;;;24.13;62.76;101517.69;5091423;28;20042;-66
2022/08/20 07:13:57;;;;;;;37.42;25.63;;;;;;;24.13;62.80;101518.53;5091453;28;20052;-67
2022/08/20 07:16:24;;;;;;;35.67;26.45;;;;;;;24.16;62.78;101520.94;5091052;28;20140;-69
2022/08/20 07:18:50;;;;;;;34.88;24.65;;;;;;;24.19;62.85;101523.31;5090712;28;20028;-70
2022/08/20 07:21:17;;;;;;;31.77;25.17;;;;;;;24.23;62.79;101532.03;5090724;28;20047;-69
2022/08/20 07:23:44;;;;;;;35.67;23.73;;;;;;;24.24;62.49;101531.84;5090186;28;20050;-70
2022/08/20 07:26:11;;;;;;;32.33;23.70;;;;;;;24.28;62.47;101526.88;5091317;28;20070;-68
2022/08/20 07:28:38;;;;;;;30.70;21.95;;;;;;;24.31;62.61;101532.00;5091333;28;20055;-68
2022/08/20 07:33:50;;;;;;;29.33;21.05;;;;;;;24.38;62.29;101531.09;5090859;28;20405;-68
2022/08/20 07:36:19;;;;;;;27.23;21.55;;;;;;;24.46;62.37;101541.16;5091443;28;20047;-68
2022/08/20 07:38:49;;;;;;;26.00;21.23;;;;;;;24.55;62.57;101537.34;5091366;28;20059;-68
2022/08/20 07:41:16;;;;;;;26.27;19.83;;;;;;;24.63;62.34;101544.69;5091119;28;20062;-68
2022/08/20 07:43:47;;;;;;;24.02;18.25;;;;;;;24.67;62.23;101544.13;5090861;28;20046;-68
2022/08/20 07:46:17;;;;;;;22.90;17.20;;;;;;;24.70;61.92;101540.16;5091140;28;20036;-68
2022/08/20 07:48:48;;;;;;;22.63;17.65;;;;;;;24.77;61.73;101540.25;5090827;28;20040;-68
2022/08/20 07:51:19;;;;;;;23.58;17.95;;;;;;;24.82;61.70;101549.66;5090819;28;20043;-68
2022/08/20 07:53:50;;;;;;;26.48;17.70;;;;;;;24.89;61.76;101541.53;5089835;28;20031;-68
2022/08/20 07:56:20;;;;;;;22.85;17.73;;;;;;;24.95;61.42;101543.53;5093477;28;20044;-68
2022/08/20 07:58:54;;;;;;;22.25;17.67;;;;;;;25.01;61.56;101551.91;5092997;27;20066;-68
2022/08/20 08:01:30;;;;;;;22.92;18.13;;;;;;;25.08;61.26;101554.78;5093221;28;20050;-68
2022/08/20 08:04:01;;;;;;;24.08;18.20;;;;;;;25.10;61.07;101551.84;5095179;28;20062;-68
2022/08/20 08:06:29;;;;;;;29.60;19.20;;;;;;;25.09;60.82;101561.13;5094421;27;20566;-68
2022/08/20 08:09:11;;;;;;;23.73;18.70;;;;;;;25.10;60.94;101554.59;5094384;28;20044;-69
2022/08/20 08:11:43;;;;;;;25.08;19.45;;;;;;;25.13;60.83;101560.56;5093087;28;20398;-68
2022/08/20 08:14:18;;;;;;;26.65;19.73;;;;;;;25.21;60.76;101560.47;5094569;28;20056;-68
2022/08/20 08:16:45;;;;;;;25.73;18.23;;;;;;;25.28;60.77;101566.13;5094202;28;20044;-68
2022/08/20 08:19:14;;;;;;;22.17;18.17;;;;;;;25.39;60.67;101556.53;5093737;28;20079;-70
2022/08/20 08:21:40;;;;;;;24.52;16.77;;;;;;;25.51;60.45;101555.88;5093781;28;20110;-69
2022/08/20 08:24:10;;;;;;;21.92;18.05;;;;;;;25.57;60.12;101560.63;5092855;28;20036;-69
2022/08/20 08:26:39;;;;;;;24.35;18.17;;;;;;;25.65;60.23;101557.81;5072387;28;20049;-71
2022/08/20 08:29:06;;;;;;;21.73;16.95;;;;;;;25.83;59.82;101556.56;5072281;28;20037;-71
2022/08/20 08:31:33;;;;;;;21.48;16.08;;;;;;;25.94;59.99;101553.31;5072272;28;20048;-71
2022/08/20 08:34:04;;;;;;;19.83;15.50;;;;;;;26.10;59.78;101555.03;5072358;28;20106;-72
2022/08/20 08:36:31;;;;;;;20.25;14.38;;;;;;;26.18;59.25;101563.16;5073692;28;20036;-71
2022/08/20 08:38:57;;;;;;;17.00;13.82;;;;;;;26.20;58.55;101566.56;5073354;28;20053;-71
2022/08/20 08:41:39;;;;;;;15.90;11.57;;;;;;;26.23;58.37;101567.03;5073583;28;20037;-71
2022/08/20 08:44:23;;;;;;;17.67;12.70;;;;;;;26.29;58.10;101571.78;5073514;28;20051;-71
2022/08/20 08:46:57;;;;;;;18.38;12.18;;;;;;;26.35;57.91;101569.31;5073333;28;20071;-71
2022/08/20 08:49:31;;;;;;;18.70;12.75;;;;;;;26.39;57.64;101570.63;5092924;28;20051;-70
2022/08/20 08:52:10;;;;;;;16.30;11.68;;;;;;;26.38;57.56;101569.78;5093107;28;20424;-70
2022/08/20 08:54:46;;;;;;;14.95;12.57;;;;;;;26.42;57.29;101576.59;5093070;28;20512;-69
2022/08/20 08:57:12;;;;;;;15.77;11.05;;;;;;;26.49;57.33;101574.78;5093270;28;20379;-70
2022/08/20 08:59:40;;;;;;;14.80;10.38;;;;;;;26.53;57.23;101578.84;5092752;28;20043;-70
2022/08/20 09:02:29;;;;;;;14.70;10.60;;;;;;;26.56;56.91;101583.97;5079517;28;20040;-69
2022/08/20 09:05:00;;;;;;;17.15;11.57;;;;;;;26.55;56.31;101578.66;5092818;28;20512;-69
2022/08/20 09:07:31;;;;;;;18.90;11.57;;;;;;;26.54;56.34;101585.22;5092079;28;20384;-69
2022/08/20 09:10:00;;;;;;;17.02;11.75;;;;;;;26.61;56.44;101575.09;5092817;28;20486;-70
2022/08/20 09:12:26;;;;;;;15.13;10.55;;;;;;;26.73;56.44;101595.56;5092815;28;20355;-70
2022/08/20 09:14:53;;;;;;;14.50;9.73;;;;;;;26.82;56.08;101588.06;5092901;28;20054;-70
2022/08/20 09:17:21;;;;;;;15.70;9.23;;;;;;;26.85;55.66;101595.94;5092880;28;20044;-70
2022/08/20 09:19:49;;;;;;;14.85;8.95;;;;;;;26.88;55.22;101590.03;5091965;27;20055;-69
2022/08/20 09:22:18;;;;;;;11.93;9.77;;;;;;;26.90;54.97;101596.19;5092231;28;20046;-70
2022/08/20 09:24:46;;;;;;;16.42;9.07;;;;;;;26.97;54.97;101590.75;5092752;27;20044;-70
2022/08/20 09:27:13;;;;;;;15.30;9.20;;;;;;;27.07;54.51;101592.13;5092628;28;20521;-70
2022/08/20 09:29:39;;;;;;;11.43;8.45;;;;;;;27.18;54.54;101591.59;5092607;28;20044;-70
2022/08/20 09:32:19;;;;;;;10.02;7.55;;;;;;;27.28;53.85;101593.16;5091800;28;20036;-71
2022/08/20 09:34:54;;;;;;;10.95;7.40;;;;;;;27.27;53.77;101589.53;5092414;28;20040;-71
2022/08/20 09:37:23;;;;;;;10.95;8.07;;;;;;;27.27;53.62;101592.28;5092544;28;20028;-72
2022/08/20 09:39:49;;;;;;;14.18;8.10;;;;;;;27.31;53.14;101589.97;5090928;28;20047;-70
2022/08/20 09:42:19;;;;;;;15.50;8.82;;;;;;;27.35;52.89;101583.88;5073751;28;20127;-72
2022/08/20 09:44:46;;;;;;;13.20;7.95;;;;;;;27.37;52.63;101581.75;5091797;28;20437;-71
2022/08/20 09:47:14;;;;;;;12.73;7.85;;;;;;;27.49;52.38;101580.13;5092135;27;20056;-72
2022/08/20 09:49:40;;;;;;;9.55;6.90;;;;;;;27.57;52.36;101579.16;5090978;28;20044;-72
2022/08/20 09:52:13;;;;;;;12.95;7.22;;;;;;;27.66;52.20;101575.22;5090489;28;20040;-71
2022/08/20 09:54:40;;;;;;;9.18;6.15;;;;;;;27.72;52.04;101579.06;5091066;28;20469;-70
2022/08/20 09:57:13;;;;;;;9.90;6.22;;;;;;;27.79;51.58;101580.81;5091758;28;20036;-71
2022/08/20 09:59:40;;;;;;;12.20;5.68;;;;;;;27.90;51.21;101587.66;5090656;28;20047;-71
2022/08/20 10:02:07;;;;;;;13.68;5.75;;;;;;;27.92;50.50;101588.28;5091757;28;20067;-71
2022/08/20 10:04:34;;;;;;;9.38;6.10;;;;;;;27.94;50.33;101580.66;5091799;28;20071;-72
2022/08/20 10:07:05;;;;;;;12.00;6.13;;;;;;;27.95;49.92;101584.28;5091869;28;20508;-72
2022/08/20 10:09:33;;;;;;;8.45;5.93;;;;;;;27.94;49.67;101580.66;5091573;27;20060;-71
2022/08/20 10:12:00;;;;;;;11.32;6.65;;;;;;;27.98;49.36;101589.38;5090640;28;20044;-70
2022/08/20 10:14:28;;;;;;;11.25;6.45;;;;;;;28.03;49.20;101578.56;5091698;28;20050;-71
2022/08/20 10:17:00;;;;;;;10.25;5.60;;;;;;;28.05;48.58;101582.84;5090111;28;20040;-71
2022/08/20 10:19:28;;;;;;;7.82;4.07;;;;;;;28.05;48.56;101593.03;5090845;28;20044;-71
2022/08/20 10:21:56;;;;;;;11.20;5.05;;;;;;;28.01;47.89;101594.50;5091399;28;20040;-71
2022/08/20 10:24:27;;;;;;;8.25;4.70;;;;;;;28.01;47.94;101594.50;5091648;28;20052;-71
2022/08/20 10:26:57;;;;;;;11.50;5.50;;;;;;;28.04;47.74;101589.41;5090392;28;20056;-71
2022/08/20 10:29:25;;;;;;;10.95;5.40;;;;;;;28.03;47.23;101593.22;5091714;28;20405;-71
2022/08/20 10:31:53;;;;;;;9.27;4.50;;;;;;;28.01;47.18;101597.25;5091259;28;20406;-72
2022/08/20 10:34:22;;;;;;;10.10;4.35;;;;;;;27.97;46.94;101593.19;5091132;28;20040;-71
2022/08/20 10:36:49;;;;;;;9.18;3.10;;;;;;;27.92;46.52;101599.34;5091261;28;20139;-72
2022/08/20 10:39:16;;;;;;;6.45;2.85;;;;;;;27.89;46.33;101596.13;5091026;28;20374;-72
2022/08/20 10:41:42;;;;;;;5.90;3.00;;;;;;;27.90;45.84;101589.56;5091041;28;20143;-71
2022/08/20 10:44:09;;;;;;;12.48;3.85;;;;;;;27.92;45.58;101591.06;5091496;28;20417;-71
2022/08/20 10:46:36;;;;;;;7.57;3.47;;;;;;;28.02;45.51;101596.19;5090834;28;20111;-71
2022/08/20 10:49:03;;;;;;;6.20;2.63;;;;;;;28.21;45.26;101600.09;5091271;28;20138;-72
2022/08/20 10:51:30;;;;;;;10.43;2.83;;;;;;;28.32;44.79;101583.00;5090970;28;20043;-71
2022/08/20 10:53:59;;;;;;;6.65;2.80;;;;;;;28.40;44.39;101597.47;5091978;28;20428;-72
2022/08/20 10:56:26;;;;;;;9.32;2.78;;;;;;;28.50;44.17;101598.97;5090902;27;20051;-72
2022/08/20 10:58:53;;;;;;;7.93;2.33;;;;;;;28.64;43.72;101593.28;5091083;28;20028;-71
2022/08/20 11:01:19;;;;;;;7.57;2.30;;;;;;;28.79;43.55;101588.41;5090870;28;20040;-72
2022/08/20 11:03:58;;;;;;;7.95;2.47;;;;;;;28.99;43.37;101593.16;5091107;28;20040;-71
2022/08/20 11:06:25;;;;;;;6.15;2.03;;;;;;;29.14;42.69;101601.25;5090854;28;20071;-72
2022/08/20 11:08:51;;;;;;;7.45;2.00;;;;;;;29.18;42.14;101608.06;5089907;28;20414;-70
2022/08/20 11:11:18;;;;;;;7.45;2.00;;;;;;;29.15;41.91;101601.03;5091136;28;20044;-71
2022/08/20 11:13:49;;;;;;;8.30;2.58;;;;;;;29.18;41.76;101600.59;5090848;28;20040;-71
2022/08/20 11:16:15;;;;;;;8.48;2.28;;;;;;;29.27;41.54;101595.69;5090349;28;20505;-71
2022/08/20 11:18:42;;;;;;;7.88;2.28;;;;;;;29.38;41.18;101598.66;5090882;28;20044;-70
2022/08/20 11:21:13;;;;;;;6.82;2.70;;;;;;;29.52;41.20;101604.22;5091168;28;20048;-71
2022/08/20 11:23:44;;;;;;;5.25;2.30;;;;;;;29.66;40.79;101600.34;5090690;28;20071;-70
2022/08/20 11:26:20;;;;;;;8.55;2.75;;;;;;;29.78;40.98;101603.34;5090731;28;20405;-71
2022/08/20 11:28:47;;;;;;;6.45;2.50;;;;;;;29.84;40.61;101596.94;5090938;28;20044;-71
2022/08/20 11:31:13;;;;;;;9.13;3.05;;;;;;;29.76;40.35;101603.56;5094430;28;20391;-71